Time;durP1;ratioP1;P1;durP2;ratioP2;P2;SDS_P1;SDS_P2;PMS_P1;PMS_P2;Temp;Humidity;BMP_temperature;BMP_pressure;BME280_temperature;BME280_humidity;BME280_pressure;Samples;Min_cycle;Max_cycle;Signal;HPM_P1;HPM_P2
2022/04/30 00:01:38;;;;;;;1.60;1.50;;;;;;;;;;5018649;28;20598;-60
2022/04/30 00:04:25;;;;;;;1.10;1.10;;;;;;;;;;5017117;28;20207;-61
2022/04/30 00:07:14;;;;;;;1.20;1.20;;;;;;;;;;5016485;28;20294;-61
2022/04/30 00:10:03;;;;;;;1.37;1.27;;;;;;;;;;5018211;28;20693;-62
2022/04/30 00:12:50;;;;;;;1.43;1.33;;;;;;;;;;5022582;28;20680;-61
2022/04/30 00:15:37;;;;;;;1.40;1.30;;;;;;;;;;5018822;28;20689;-61
2022/04/30 00:18:25;;;;;;;1.40;1.30;;;;;;;;;;5018578;28;20289;-61
2022/04/30 00:21:11;;;;;;;1.47;1.40;;;;;;;;;;5018329;28;20235;-61
2022/04/30 00:23:58;;;;;;;1.80;1.70;;;;;;;;;;5021750;28;20270;-61
2022/04/30 00:26:47;;;;;;;1.37;1.27;;;;;;;;;;5019120;28;20207;-61
2022/04/30 00:29:34;;;;;;;1.57;1.47;;;;;;;;;;5023509;28;20234;-61
2022/04/30 00:32:22;;;;;;;1.37;1.37;;;;;;;;;;5014903;28;20690;-61
2022/04/30 00:35:10;;;;;;;1.40;1.30;;;;;;;;;;5019842;28;20214;-62
2022/04/30 00:37:57;;;;;;;1.70;1.60;;;;;;;;;;5018309;28;20210;-61
2022/04/30 00:40:44;;;;;;;1.40;1.40;;;;;;;;;;5013713;28;20318;-60
2022/04/30 00:43:42;;;;;;;1.60;1.50;;;;;;;;;;5018503;28;20212;-61
2022/04/30 00:46:29;;;;;;;1.73;1.63;;;;;;;;;;5019201;28;20267;-61
2022/04/30 00:49:16;;;;;;;1.70;1.60;;;;;;;;;;5011869;28;20281;-61
2022/04/30 00:52:04;;;;;;;1.83;1.73;;;;;;;;;;5018925;28;20294;-61
2022/04/30 00:54:53;;;;;;;1.57;1.53;;;;;;;;;;5016745;28;20314;-61
2022/04/30 00:57:44;;;;;;;1.70;1.60;;;;;;;;;;5018516;28;20216;-61
2022/04/30 01:00:33;;;;;;;1.70;1.60;;;;;;;;;;5017749;28;20286;-58
2022/04/30 01:03:20;;;;;;;1.63;1.53;;;;;;;;;;5013741;28;20241;-61
2022/04/30 01:06:09;;;;;;;1.80;1.70;;;;;;;;;;5016070;28;20600;-61
2022/04/30 01:08:56;;;;;;;1.63;1.53;;;;;;;;;;5018563;28;20214;-61
2022/04/30 01:11:43;;;;;;;1.60;1.50;;;;;;;;;;5017445;28;20239;-61
2022/04/30 01:14:31;;;;;;;1.57;1.47;;;;;;;;;;5015313;28;20212;-60
2022/04/30 01:17:21;;;;;;;2.13;1.47;;;;;;;;;;5017995;28;20215;-61
2022/04/30 01:20:10;;;;;;;1.63;1.53;;;;;;;;;;5017378;28;20686;-61
2022/04/30 01:23:02;;;;;;;1.70;1.60;;;;;;;;;;5016879;28;20805;-61
2022/04/30 01:25:51;;;;;;;1.30;1.20;;;;;;;;;;5021767;28;20215;-61
2022/04/30 01:28:39;;;;;;;2.00;1.23;;;;;;;;;;5015868;28;20264;-61
2022/04/30 01:37:37;;;;;;;1.30;1.20;;;;;;;;;;5016653;28;20774;-61
2022/04/30 01:40:25;;;;;;;2.27;1.20;;;;;;;;;;5020759;28;20242;-61
2022/04/30 01:43:13;;;;;;;1.30;1.20;;;;;;;;;;5013111;28;20254;-61
2022/04/30 01:46:01;;;;;;;1.40;1.30;;;;;;;;;;5017454;28;20246;-61
2022/04/30 01:48:48;;;;;;;1.20;1.10;;;;;;;;;;5026389;28;20260;-61
2022/04/30 01:51:35;;;;;;;1.23;1.20;;;;;;;;;;5031018;28;20253;-63
2022/04/30 01:54:22;;;;;;;1.53;1.30;;;;;;;;;;5029908;28;20270;-61
2022/04/30 01:57:12;;;;;;;1.40;1.30;;;;;;;;;;5032568;28;20598;-62
2022/04/30 02:00:02;;;;;;;1.37;1.37;;;;;;;;;;5042867;28;20287;-61
2022/04/30 02:02:51;;;;;;;1.67;1.57;;;;;;;;;;5040163;28;20304;-61
2022/04/30 02:05:41;;;;;;;1.33;1.33;;;;;;;;;;5033119;28;20218;-61
2022/04/30 02:08:28;;;;;;;1.93;1.10;;;;;;;;;;5031774;28;20214;-60
2022/04/30 02:11:15;;;;;;;1.07;1.07;;;;;;;;;;5032821;28;20313;-61
2022/04/30 02:14:05;;;;;;;1.00;1.00;;;;;;;;;;5036489;28;20215;-61
2022/04/30 02:16:52;;;;;;;1.20;1.20;;;;;;;;;;5031974;28;20657;-61
2022/04/30 02:22:45;;;;;;;1.20;1.20;;;;;;;;;;5033570;28;20204;-62
2022/04/30 02:25:32;;;;;;;1.30;1.30;;;;;;;;;;5031087;28;20206;-61
2022/04/30 02:28:19;;;;;;;1.10;1.00;;;;;;;;;;5031008;28;20214;-61
2022/04/30 02:31:08;;;;;;;1.17;1.10;;;;;;;;;;5031021;28;21074;-63
2022/04/30 02:33:56;;;;;;;1.27;1.07;;;;;;;;;;5030586;28;20221;-61
2022/04/30 02:36:43;;;;;;;0.97;0.97;;;;;;;;;;5030848;28;20211;-61
2022/04/30 02:39:30;;;;;;;0.80;0.80;;;;;;;;;;5031159;28;20201;-61
2022/04/30 02:42:17;;;;;;;1.00;1.00;;;;;;;;;;5030999;28;20341;-61
2022/04/30 02:45:05;;;;;;;1.20;1.10;;;;;;;;;;5031955;28;20217;-61
2022/04/30 02:47:55;;;;;;;0.80;0.80;;;;;;;;;;5031482;28;20313;-61
2022/04/30 02:50:43;;;;;;;0.87;0.87;;;;;;;;;;5032262;28;20264;-61
2022/04/30 02:53:30;;;;;;;1.30;0.93;;;;;;;;;;5031109;28;20249;-61
2022/04/30 02:56:17;;;;;;;1.00;1.00;;;;;;;;;;5031687;28;20831;-61
2022/04/30 03:02:08;;;;;;;0.90;0.90;;;;;;;;;;5029650;28;20226;-61
2022/04/30 03:04:57;;;;;;;0.83;0.83;;;;;;;;;;5031474;28;20364;-61
2022/04/30 03:07:44;;;;;;;1.17;1.07;;;;;;;;;;5030837;28;20313;-61
2022/04/30 03:10:31;;;;;;;1.00;1.00;;;;;;;;;;5032373;28;20213;-62
2022/04/30 03:13:18;;;;;;;1.07;1.07;;;;;;;;;;5030048;28;20292;-61
2022/04/30 03:22:14;;;;;;;0.87;0.87;;;;;;;;;;5035580;28;20233;-61
2022/04/30 03:25:01;;;;;;;0.70;0.70;;;;;;;;;;5034617;28;20452;-61
2022/04/30 03:27:48;;;;;;;0.90;0.90;;;;;;;;;;5032578;28;20300;-61
2022/04/30 03:30:35;;;;;;;1.07;1.07;;;;;;;;;;5030609;28;20297;-62
2022/04/30 03:33:22;;;;;;;1.20;1.20;;;;;;;;;;5033326;28;20218;-62
2022/04/30 03:36:12;;;;;;;1.10;1.10;;;;;;;;;;5031212;28;20221;-61
2022/04/30 03:39:01;;;;;;;1.10;1.10;;;;;;;;;;5030531;28;20254;-61
2022/04/30 03:41:47;;;;;;;1.17;1.10;;;;;;;;;;5035896;28;20241;-61
2022/04/30 03:44:34;;;;;;;1.27;1.20;;;;;;;;;;5031432;28;20297;-62
2022/04/30 03:47:21;;;;;;;1.10;1.10;;;;;;;;;;5028777;28;20525;-62
2022/04/30 03:50:09;;;;;;;1.10;1.10;;;;;;;;;;5028845;28;20741;-61
2022/04/30 03:52:56;;;;;;;1.47;1.47;;;;;;;;;;5029367;28;20234;-62
2022/04/30 03:55:45;;;;;;;0.77;0.77;;;;;;;;;;5031358;28;20293;-61
2022/04/30 03:58:32;;;;;;;0.87;0.87;;;;;;;;;;5029852;28;20207;-61
2022/04/30 04:01:19;;;;;;;0.77;0.77;;;;;;;;;;5033202;28;20283;-61
2022/04/30 04:04:06;;;;;;;1.10;1.10;;;;;;;;;;5032029;28;20208;-61
2022/04/30 04:06:54;;;;;;;1.00;1.00;;;;;;;;;;5034453;28;20711;-61
2022/04/30 04:09:41;;;;;;;1.10;1.10;;;;;;;;;;5030145;28;20337;-61
2022/04/30 04:12:29;;;;;;;1.00;1.00;;;;;;;;;;5030812;28;20291;-60
2022/04/30 04:18:20;;;;;;;1.00;1.00;;;;;;;;;;5029281;28;20244;-61
2022/04/30 04:21:08;;;;;;;0.77;0.77;;;;;;;;;;5033502;28;20863;-61
2022/04/30 04:27:01;;;;;;;0.80;0.80;;;;;;;;;;5033546;28;20299;-61
2022/04/30 04:29:50;;;;;;;0.90;0.90;;;;;;;;;;5030847;28;20237;-60
2022/04/30 04:32:36;;;;;;;0.83;0.83;;;;;;;;;;5030272;28;20570;-61
2022/04/30 04:35:24;;;;;;;1.00;1.00;;;;;;;;;;5028132;28;20219;-61
2022/04/30 04:38:11;;;;;;;1.00;1.00;;;;;;;;;;5033478;28;20697;-62
2022/04/30 04:40:58;;;;;;;1.00;1.00;;;;;;;;;;5028718;28;20360;-61
2022/04/30 04:43:45;;;;;;;0.73;0.73;;;;;;;;;;5029627;28;20281;-62
2022/04/30 04:46:33;;;;;;;0.73;0.73;;;;;;;;;;5023729;28;20720;-61
2022/04/30 04:49:20;;;;;;;0.90;0.90;;;;;;;;;;5012404;28;20269;-61
2022/04/30 04:52:09;;;;;;;0.70;0.70;;;;;;;;;;5014915;28;20338;-61
2022/04/30 04:54:56;;;;;;;0.80;0.80;;;;;;;;;;5015087;28;20278;-62
2022/04/30 04:57:43;;;;;;;1.00;1.00;;;;;;;;;;5015088;28;20670;-62
2022/04/30 05:00:30;;;;;;;0.80;0.80;;;;;;;;;;5014081;28;20290;-62
2022/04/30 05:03:19;;;;;;;0.87;0.87;;;;;;;;;;5020672;28;20704;-61
2022/04/30 05:06:05;;;;;;;0.90;0.90;;;;;;;;;;5014031;28;20205;-61
2022/04/30 05:08:52;;;;;;;0.80;0.80;;;;;;;;;;5018922;28;20291;-61
2022/04/30 05:11:39;;;;;;;0.80;0.80;;;;;;;;;;5017759;28;20215;-62
2022/04/30 05:14:26;;;;;;;1.00;0.90;;;;;;;;;;5018615;28;20205;-62
2022/04/30 05:17:13;;;;;;;0.67;0.67;;;;;;;;;;5019024;28;20580;-62
2022/04/30 05:20:02;;;;;;;0.80;0.80;;;;;;;;;;5017893;28;20205;-61
2022/04/30 05:22:49;;;;;;;0.70;0.70;;;;;;;;;;5015079;28;20326;-61
2022/04/30 05:25:36;;;;;;;0.70;0.70;;;;;;;;;;5018739;28;20241;-62
2022/04/30 05:28:23;;;;;;;0.80;0.80;;;;;;;;;;5024703;28;20687;-61
2022/04/30 05:31:10;;;;;;;0.63;0.63;;;;;;;;;;5023185;28;20217;-61
2022/04/30 05:33:57;;;;;;;0.70;0.70;;;;;;;;;;5020253;28;20215;-62
2022/04/30 05:36:45;;;;;;;0.70;0.70;;;;;;;;;;5021809;28;20282;-61
2022/04/30 05:39:32;;;;;;;0.70;0.70;;;;;;;;;;5019846;28;20696;-62
2022/04/30 05:42:19;;;;;;;0.77;0.77;;;;;;;;;;5022526;28;20308;-62
2022/04/30 05:45:07;;;;;;;0.60;0.60;;;;;;;;;;5015468;28;20287;-61
2022/04/30 05:47:54;;;;;;;0.77;0.77;;;;;;;;;;5030081;28;20337;-61
2022/04/30 05:50:41;;;;;;;0.60;0.60;;;;;;;;;;5031737;28;20735;-59
2022/04/30 05:53:29;;;;;;;0.57;0.57;;;;;;;;;;5035942;28;20632;-62
2022/04/30 05:56:16;;;;;;;0.73;0.70;;;;;;;;;;5032222;28;20316;-60
2022/04/30 05:59:03;;;;;;;0.60;0.60;;;;;;;;;;5037085;28;20734;-60
2022/04/30 06:01:50;;;;;;;0.50;0.50;;;;;;;;;;5031278;28;20703;-60
2022/04/30 06:04:37;;;;;;;0.55;0.55;;;;;;;;;;5040539;28;20675;-61
2022/04/30 06:07:24;;;;;;;0.52;0.52;;;;;;;;;;5031443;28;20273;-60
2022/04/30 06:10:12;;;;;;;0.68;0.68;;;;;;;;;;5030282;28;20695;-61
2022/04/30 06:13:00;;;;;;;0.50;0.47;;;;;;;;;;5035743;28;20305;-60
2022/04/30 06:15:46;;;;;;;0.68;0.68;;;;;;;;;;5033695;28;20295;-60
2022/04/30 06:18:33;;;;;;;0.50;0.50;;;;;;;;;;5031940;28;20309;-60
2022/04/30 06:21:22;;;;;;;0.60;0.52;;;;;;;;;;5032003;28;20763;-60
2022/04/30 06:24:09;;;;;;;0.60;0.60;;;;;;;;;;5033079;28;20358;-60
2022/04/30 06:26:57;;;;;;;0.40;0.40;;;;;;;;;;5030226;28;20692;-59
2022/04/30 06:29:44;;;;;;;0.60;0.60;;;;;;;;;;5033774;28;20604;-60
2022/04/30 06:32:31;;;;;;;1.55;0.47;;;;;;;;;;5032900;28;20609;-61
2022/04/30 06:35:18;;;;;;;0.50;0.40;;;;;;;;;;5032138;28;21292;-60
2022/04/30 06:38:06;;;;;;;0.75;0.50;;;;;;;;;;5033304;28;20298;-60
2022/04/30 06:40:53;;;;;;;0.30;0.30;;;;;;;;;;5030256;28;20216;-60
2022/04/30 06:43:41;;;;;;;0.60;0.60;;;;;;;;;;5031290;28;20718;-61
2022/04/30 06:46:28;;;;;;;0.43;0.43;;;;;;;;;;5027437;28;20765;-60
2022/04/30 06:49:15;;;;;;;0.65;0.55;;;;;;;;;;5021536;28;20673;-61
2022/04/30 06:52:03;;;;;;;0.40;0.40;;;;;;;;;;5016841;28;20208;-61
2022/04/30 06:57:54;;;;;;;0.82;0.40;;;;;;;;;;5015195;28;20205;-61
2022/04/30 07:03:47;;;;;;;0.38;0.38;;;;;;;;;;5019239;28;20716;-59
2022/04/30 07:06:35;;;;;;;0.73;0.50;;;;;;;;;;5018085;28;20205;-59
2022/04/30 07:09:22;;;;;;;0.60;0.60;;;;;;;;;;5018252;28;20290;-59
2022/04/30 07:12:12;;;;;;;0.40;0.40;;;;;;;;;;5023600;28;20356;-59
2022/04/30 07:14:59;;;;;;;0.47;0.47;;;;;;;;;;5018638;28;20212;-59
2022/04/30 07:17:48;;;;;;;0.30;0.30;;;;;;;;;;5020667;28;20263;-59
2022/04/30 07:20:35;;;;;;;0.43;0.43;;;;;;;;;;5024676;28;20212;-60
2022/04/30 07:23:22;;;;;;;0.40;0.40;;;;;;;;;;5023835;28;20224;-60
2022/04/30 07:26:09;;;;;;;0.73;0.50;;;;;;;;;;5017833;28;20743;-59
2022/04/30 07:28:56;;;;;;;0.70;0.57;;;;;;;;;;5021157;28;20255;-59
2022/04/30 07:31:43;;;;;;;0.30;0.30;;;;;;;;;;5017465;28;20217;-59
2022/04/30 07:34:31;;;;;;;0.50;0.50;;;;;;;;;;5026639;28;20677;-58
2022/04/30 07:37:18;;;;;;;0.52;0.52;;;;;;;;;;5017129;28;20209;-59
2022/04/30 07:40:08;;;;;;;0.47;0.47;;;;;;;;;;5016423;28;20853;-59
2022/04/30 07:42:57;;;;;;;0.40;0.40;;;;;;;;;;5019277;28;20224;-59
2022/04/30 07:45:44;;;;;;;0.40;0.40;;;;;;;;;;5016032;28;20209;-59
2022/04/30 07:48:31;;;;;;;0.45;0.45;;;;;;;;;;5029870;28;20211;-58
2022/04/30 07:51:33;;;;;;;0.40;0.40;;;;;;;;;;5032640;28;20211;-57
2022/04/30 07:54:21;;;;;;;0.30;0.30;;;;;;;;;;5029841;28;20235;-59
2022/04/30 07:57:07;;;;;;;0.50;0.50;;;;;;;;;;5036757;28;20208;-58
2022/04/30 07:59:54;;;;;;;0.50;0.50;;;;;;;;;;5034957;28;20676;-58
2022/04/30 08:02:42;;;;;;;0.30;0.30;;;;;;;;;;5029414;28;20713;-58
2022/04/30 08:05:29;;;;;;;0.32;0.32;;;;;;;;;;5032556;28;20222;-58
2022/04/30 08:08:17;;;;;;;1.00;0.40;;;;;;;;;;5030232;28;20313;-59
2022/04/30 08:11:04;;;;;;;0.40;0.40;;;;;;;;;;5031107;28;20251;-58
2022/04/30 08:13:51;;;;;;;0.30;0.30;;;;;;;;;;5032768;28;20298;-59
2022/04/30 08:16:38;;;;;;;0.70;0.40;;;;;;;;;;5029721;28;20321;-60
2022/04/30 08:19:25;;;;;;;0.40;0.30;;;;;;;;;;5030915;28;20295;-60
2022/04/30 08:22:13;;;;;;;0.40;0.40;;;;;;;;;;5029594;28;20204;-59
2022/04/30 08:25:02;;;;;;;0.30;0.30;;;;;;;;;;5030957;28;20239;-60
2022/04/30 08:27:49;;;;;;;0.50;0.50;;;;;;;;;;5030413;28;20354;-60
2022/04/30 08:30:36;;;;;;;0.50;0.50;;;;;;;;;;5032654;28;20797;-60
2022/04/30 08:33:23;;;;;;;0.40;0.40;;;;;;;;;;5030705;28;20686;-61
2022/04/30 08:36:10;;;;;;;0.98;0.40;;;;;;;;;;5030696;28;20212;-60
2022/04/30 08:38:57;;;;;;;0.40;0.40;;;;;;;;;;5038309;28;20309;-60
2022/04/30 08:41:45;;;;;;;0.45;0.45;;;;;;;;;;5029828;28;20283;-60
2022/04/30 08:44:32;;;;;;;0.32;0.32;;;;;;;;;;5029169;28;20236;-60
2022/04/30 08:47:19;;;;;;;0.38;0.38;;;;;;;;;;5025770;28;20245;-60
2022/04/30 08:50:08;;;;;;;0.30;0.30;;;;;;;;;;5032267;28;20294;-61
2022/04/30 08:52:55;;;;;;;0.40;0.40;;;;;;;;;;5032212;28;20758;-60
2022/04/30 08:55:42;;;;;;;0.50;0.47;;;;;;;;;;5029211;28;20243;-60
2022/04/30 08:58:31;;;;;;;0.40;0.40;;;;;;;;;;5031599;28;20211;-61
2022/04/30 09:01:18;;;;;;;0.30;0.30;;;;;;;;;;5029906;28;20292;-59
2022/04/30 09:04:05;;;;;;;0.30;0.30;;;;;;;;;;5031846;28;20277;-61
2022/04/30 09:06:54;;;;;;;0.32;0.32;;;;;;;;;;5033082;28;20297;-59
2022/04/30 09:09:41;;;;;;;1.33;0.40;;;;;;;;;;5031617;28;20270;-61
2022/04/30 09:12:29;;;;;;;0.47;0.47;;;;;;;;;;5035548;28;20782;-61
2022/04/30 09:15:17;;;;;;;0.28;0.28;;;;;;;;;;5033257;28;20219;-65
2022/04/30 09:18:07;;;;;;;0.68;0.30;;;;;;;;;;5033471;28;20292;-61
2022/04/30 09:20:55;;;;;;;0.30;0.30;;;;;;;;;;5034666;28;20240;-60
2022/04/30 09:23:43;;;;;;;0.30;0.30;;;;;;;;;;5038500;28;20284;-60
2022/04/30 09:26:39;;;;;;;0.40;0.40;;;;;;;;;;5036233;28;20221;-60
2022/04/30 09:29:26;;;;;;;0.30;0.30;;;;;;;;;;5034237;28;20215;-61
2022/04/30 09:32:18;;;;;;;0.40;0.40;;;;;;;;;;5031489;28;20294;-61
2022/04/30 09:38:25;;;;;;;0.37;0.37;;;;;;;;;;5015176;28;20225;-61
2022/04/30 09:41:12;;;;;;;0.32;0.32;;;;;;;;;;5031163;28;20227;-60
2022/04/30 09:44:01;;;;;;;0.60;0.60;;;;;;;;;;5032423;28;20317;-62
2022/04/30 09:46:48;;;;;;;0.37;0.37;;;;;;;;;;5031945;28;20221;-60
2022/04/30 09:55:52;;;;;;;0.30;0.30;;;;;;;;;;5013886;28;20688;-61
2022/04/30 09:58:42;;;;;;;0.43;0.43;;;;;;;;;;5018283;28;20281;-62
2022/04/30 10:01:32;;;;;;;0.37;0.37;;;;;;;;;;5019800;28;20206;-61
2022/04/30 10:04:19;;;;;;;0.83;0.50;;;;;;;;;;5017247;28;20227;-61
2022/04/30 10:07:08;;;;;;;0.43;0.40;;;;;;;;;;5022317;28;20283;-61
2022/04/30 10:10:03;;;;;;;0.40;0.40;;;;;;;;;;5020749;28;20384;-61
2022/04/30 10:12:55;;;;;;;0.30;0.30;;;;;;;;;;5018907;28;20218;-61
2022/04/30 10:15:51;;;;;;;0.40;0.40;;;;;;;;;;5024328;28;20254;-61
2022/04/30 10:18:42;;;;;;;0.30;0.30;;;;;;;;;;5022448;28;20207;-61
2022/04/30 10:21:29;;;;;;;0.40;0.40;;;;;;;;;;5020234;28;20216;-67
2022/04/30 10:24:17;;;;;;;0.83;0.63;;;;;;;;;;5024365;28;20237;-61
2022/04/30 10:27:05;;;;;;;0.30;0.30;;;;;;;;;;5028727;28;20675;-60
2022/04/30 10:29:53;;;;;;;0.50;0.50;;;;;;;;;;5018175;28;20206;-60
2022/04/30 10:32:42;;;;;;;1.13;0.60;;;;;;;;;;5023819;28;20216;-61
2022/04/30 10:35:31;;;;;;;0.67;0.50;;;;;;;;;;5015848;28;20680;-62
2022/04/30 10:38:19;;;;;;;0.50;0.50;;;;;;;;;;5022217;28;20254;-61
2022/04/30 10:41:10;;;;;;;0.40;0.40;;;;;;;;;;5022585;28;20265;-61
2022/04/30 10:44:02;;;;;;;0.53;0.53;;;;;;;;;;5015968;28;20847;-62
2022/04/30 10:46:49;;;;;;;0.50;0.50;;;;;;;;;;5021105;28;20215;-62
2022/04/30 10:49:36;;;;;;;0.97;0.60;;;;;;;;;;5017928;28;20207;-62
2022/04/30 10:52:25;;;;;;;0.40;0.40;;;;;;;;;;5017252;28;20209;-62
2022/04/30 10:55:12;;;;;;;0.43;0.43;;;;;;;;;;5021189;28;20207;-61
2022/04/30 10:58:00;;;;;;;1.23;0.40;;;;;;;;;;5019177;28;20285;-62
2022/04/30 11:00:47;;;;;;;0.70;0.50;;;;;;;;;;5017911;28;20205;-61
2022/04/30 11:03:34;;;;;;;0.60;0.60;;;;;;;;;;5018346;28;20585;-60
2022/04/30 11:06:23;;;;;;;0.37;0.37;;;;;;;;;;5025335;28;20683;-62
2022/04/30 11:09:10;;;;;;;0.73;0.53;;;;;;;;;;5014344;28;20206;-61
2022/04/30 11:11:57;;;;;;;0.57;0.50;;;;;;;;;;5023773;28;20210;-61
2022/04/30 11:14:47;;;;;;;0.53;0.53;;;;;;;;;;5016777;28;20300;-60
2022/04/30 11:17:43;;;;;;;0.40;0.40;;;;;;;;;;5023745;28;20470;-65
2022/04/30 11:20:30;;;;;;;0.30;0.30;;;;;;;;;;5020470;28;20286;-61
2022/04/30 11:23:23;;;;;;;0.40;0.40;;;;;;;;;;5025341;28;20232;-61
2022/04/30 11:26:17;;;;;;;0.73;0.40;;;;;;;;;;5016067;28;20552;-61
2022/04/30 11:29:08;;;;;;;0.53;0.40;;;;;;;;;;5021977;28;20218;-61
2022/04/30 11:31:57;;;;;;;0.43;0.43;;;;;;;;;;5019005;28;20265;-61
2022/04/30 11:34:44;;;;;;;0.40;0.40;;;;;;;;;;5017922;28;20301;-60
2022/04/30 11:37:38;;;;;;;0.20;0.20;;;;;;;;;;5022074;28;20502;-62
2022/04/30 11:40:26;;;;;;;7.00;0.70;;;;;;;;;;5013879;28;20210;-61
2022/04/30 11:43:13;;;;;;;0.30;0.30;;;;;;;;;;5018839;28;20213;-61
2022/04/30 11:46:00;;;;;;;0.40;0.33;;;;;;;;;;5022662;28;20295;-61
2022/04/30 11:48:49;;;;;;;0.60;0.40;;;;;;;;;;5028207;28;20675;-61
2022/04/30 11:51:37;;;;;;;0.40;0.40;;;;;;;;;;5031017;28;20348;-61
2022/04/30 11:54:25;;;;;;;0.40;0.40;;;;;;;;;;5031306;28;20233;-61
2022/04/30 11:57:15;;;;;;;0.53;0.53;;;;;;;;;;5029931;28;20261;-61
2022/04/30 12:00:02;;;;;;;0.57;0.47;;;;;;;;;;5029819;28;20246;-62
2022/04/30 12:02:50;;;;;;;0.40;0.40;;;;;;;;;;5034426;28;20224;-61
2022/04/30 12:05:42;;;;;;;0.37;0.37;;;;;;;;;;5031130;28;20278;-61
2022/04/30 12:08:30;;;;;;;0.37;0.37;;;;;;;;;;5032119;28;20287;-62
2022/04/30 12:11:17;;;;;;;0.47;0.40;;;;;;;;;;5030850;28;20292;-62
2022/04/30 12:14:04;;;;;;;0.20;0.20;;;;;;;;;;5033841;28;21038;-61
2022/04/30 12:16:53;;;;;;;0.50;0.50;;;;;;;;;;5033804;28;20206;-62
2022/04/30 12:25:50;;;;;;;0.40;0.40;;;;;;;;;;5030885;28;20212;-62
2022/04/30 12:28:46;;;;;;;0.50;0.50;;;;;;;;;;5029027;28;20287;-61
2022/04/30 12:31:32;;;;;;;0.40;0.40;;;;;;;;;;5030375;28;20219;-61
2022/04/30 12:34:20;;;;;;;0.30;0.30;;;;;;;;;;5029305;28;20202;-61
2022/04/30 12:37:08;;;;;;;0.30;0.30;;;;;;;;;;5028589;28;20694;-62
2022/04/30 12:39:58;;;;;;;0.50;0.50;;;;;;;;;;5030186;28;20214;-61
2022/04/30 12:42:45;;;;;;;0.40;0.30;;;;;;;;;;5029259;28;20589;-61
2022/04/30 12:45:33;;;;;;;0.33;0.33;;;;;;;;;;5028154;28;20589;-62
2022/04/30 12:48:20;;;;;;;0.40;0.30;;;;;;;;;;5028929;28;20249;-62
2022/04/30 12:51:07;;;;;;;0.40;0.30;;;;;;;;;;5029120;28;20278;-62
2022/04/30 12:53:54;;;;;;;0.30;0.30;;;;;;;;;;5026091;28;20593;-61
2022/04/30 12:56:44;;;;;;;0.30;0.30;;;;;;;;;;5037295;28;20248;-62
2022/04/30 12:59:31;;;;;;;0.23;0.23;;;;;;;;;;5030042;28;20211;-61
2022/04/30 13:02:22;;;;;;;0.30;0.23;;;;;;;;;;5027062;28;20252;-61
2022/04/30 13:05:11;;;;;;;0.23;0.23;;;;;;;;;;5028975;28;20232;-61
2022/04/30 13:07:58;;;;;;;0.30;0.30;;;;;;;;;;5037521;28;20278;-62
2022/04/30 13:13:51;;;;;;;0.40;0.40;;;;;;;;;;5028422;28;20219;-61
2022/04/30 13:16:38;;;;;;;0.30;0.30;;;;;;;;;;5028452;28;20207;-61
2022/04/30 13:19:26;;;;;;;0.30;0.30;;;;;;;;;;5033414;28;20218;-62
2022/04/30 13:22:13;;;;;;;0.30;0.30;;;;;;;;;;5029425;28;20744;-60
2022/04/30 13:25:00;;;;;;;0.20;0.20;;;;;;;;;;5032924;28;20717;-60
2022/04/30 13:27:47;;;;;;;0.40;0.40;;;;;;;;;;5033005;28;20215;-61
2022/04/30 13:30:36;;;;;;;0.40;0.40;;;;;;;;;;5031502;28;20202;-61
2022/04/30 13:33:23;;;;;;;0.33;0.33;;;;;;;;;;5030775;28;20218;-62
2022/04/30 13:36:10;;;;;;;0.33;0.33;;;;;;;;;;5026437;28;20775;-62
2022/04/30 13:38:56;;;;;;;0.40;0.40;;;;;;;;;;5031226;28;20549;-61
2022/04/30 13:41:43;;;;;;;0.40;0.40;;;;;;;;;;5028880;28;20216;-62
2022/04/30 13:44:30;;;;;;;0.30;0.30;;;;;;;;;;5031134;28;20233;-62
2022/04/30 13:47:19;;;;;;;0.30;0.30;;;;;;;;;;5033672;28;20281;-62
2022/04/30 13:50:07;;;;;;;0.40;0.40;;;;;;;;;;5033092;28;20688;-61
2022/04/30 13:52:54;;;;;;;0.30;0.30;;;;;;;;;;5033435;28;20275;-60
2022/04/30 13:55:42;;;;;;;0.70;0.40;;;;;;;;;;5031633;28;20203;-62
2022/04/30 13:58:29;;;;;;;0.30;0.30;;;;;;;;;;5032419;28;20206;-62
2022/04/30 14:01:16;;;;;;;0.27;0.27;;;;;;;;;;5032250;28;20657;-61
2022/04/30 14:04:05;;;;;;;1.17;0.33;;;;;;;;;;5033586;28;20322;-63
2022/04/30 14:06:53;;;;;;;0.30;0.30;;;;;;;;;;5030699;28;20789;-61
2022/04/30 14:09:40;;;;;;;0.30;0.30;;;;;;;;;;5033800;28;20356;-61
2022/04/30 14:12:27;;;;;;;0.30;0.27;;;;;;;;;;5031926;28;20304;-61
2022/04/30 14:15:14;;;;;;;0.20;0.20;;;;;;;;;;5036746;28;20295;-61
2022/04/30 14:18:21;;;;;;;0.40;0.40;;;;;;;;;;5032170;28;20251;-61
2022/04/30 14:21:09;;;;;;;0.77;0.47;;;;;;;;;;5032658;28;20208;-61
2022/04/30 14:23:56;;;;;;;0.43;0.30;;;;;;;;;;5032610;28;20293;-61
2022/04/30 14:26:43;;;;;;;1.43;0.40;;;;;;;;;;5034245;28;20212;-62
2022/04/30 14:29:30;;;;;;;0.50;0.30;;;;;;;;;;5031715;28;20270;-61
2022/04/30 14:32:19;;;;;;;0.40;0.40;;;;;;;;;;5030835;28;20217;-61
2022/04/30 14:35:07;;;;;;;0.30;0.30;;;;;;;;;;5031732;28;20201;-61
2022/04/30 14:37:55;;;;;;;0.27;0.20;;;;;;;;;;5032542;28;20220;-60
2022/04/30 14:40:43;;;;;;;0.37;0.37;;;;;;;;;;5033496;28;20279;-61
2022/04/30 14:43:30;;;;;;;0.77;0.47;;;;;;;;;;5030975;28;20685;-61
2022/04/30 14:46:17;;;;;;;0.97;0.30;;;;;;;;;;5030918;28;20553;-61
2022/04/30 14:49:04;;;;;;;0.30;0.30;;;;;;;;;;5034236;28;20244;-60
2022/04/30 14:51:51;;;;;;;0.40;0.37;;;;;;;;;;5032223;28;20311;-61
2022/04/30 14:54:39;;;;;;;0.30;0.30;;;;;;;;;;5032882;28;20309;-61
2022/04/30 14:57:27;;;;;;;0.30;0.30;;;;;;;;;;5031893;28;20581;-61
2022/04/30 15:00:15;;;;;;;0.40;0.40;;;;;;;;;;5034585;28;20312;-60
2022/04/30 15:03:03;;;;;;;0.30;0.30;;;;;;;;;;5033350;28;20216;-61
2022/04/30 15:05:50;;;;;;;0.30;0.30;;;;;;;;;;5031232;28;20221;-61
2022/04/30 15:08:37;;;;;;;0.37;0.37;;;;;;;;;;5033771;28;20211;-61
2022/04/30 15:11:26;;;;;;;0.30;0.30;;;;;;;;;;5033854;28;20320;-61
2022/04/30 15:14:13;;;;;;;0.30;0.30;;;;;;;;;;5031543;28;20299;-61
2022/04/30 15:17:00;;;;;;;0.23;0.23;;;;;;;;;;5030155;28;20278;-61
2022/04/30 15:19:47;;;;;;;0.60;0.40;;;;;;;;;;5030539;28;20301;-61
2022/04/30 15:22:34;;;;;;;0.40;0.40;;;;;;;;;;5032259;28;20657;-61
2022/04/30 15:25:21;;;;;;;0.30;0.30;;;;;;;;;;5030579;28;20228;-61
2022/04/30 15:28:10;;;;;;;0.30;0.30;;;;;;;;;;5038364;28;20210;-61
2022/04/30 15:30:57;;;;;;;0.40;0.40;;;;;;;;;;5029640;28;20298;-61
2022/04/30 15:33:44;;;;;;;1.23;0.40;;;;;;;;;;5029907;28;20244;-61
2022/04/30 15:36:31;;;;;;;0.27;0.27;;;;;;;;;;5028893;28;20240;-61
2022/04/30 15:39:18;;;;;;;0.20;0.20;;;;;;;;;;5030169;28;20273;-61
2022/04/30 15:42:07;;;;;;;0.30;0.30;;;;;;;;;;5029704;28;20261;-60
2022/04/30 15:44:55;;;;;;;1.07;0.30;;;;;;;;;;5031662;28;20242;-60
2022/04/30 15:53:51;;;;;;;0.33;0.33;;;;;;;;;;5028908;28;20231;-62
2022/04/30 15:56:38;;;;;;;0.47;0.33;;;;;;;;;;5031876;28;20204;-62
2022/04/30 15:59:26;;;;;;;0.30;0.30;;;;;;;;;;5029842;28;20320;-62
2022/04/30 16:02:14;;;;;;;0.40;0.30;;;;;;;;;;5034045;28;20210;-62
2022/04/30 16:05:01;;;;;;;0.50;0.50;;;;;;;;;;5030630;28;20318;-61
2022/04/30 16:07:48;;;;;;;0.30;0.30;;;;;;;;;;5029424;28;20932;-61
2022/04/30 16:10:35;;;;;;;0.40;0.40;;;;;;;;;;5031189;28;20234;-61
2022/04/30 16:13:22;;;;;;;0.50;0.30;;;;;;;;;;5032676;28;20961;-61
2022/04/30 16:16:10;;;;;;;0.27;0.27;;;;;;;;;;5028516;28;20223;-62
2022/04/30 16:18:58;;;;;;;0.30;0.30;;;;;;;;;;5033225;28;20207;-61
2022/04/30 16:21:46;;;;;;;0.30;0.30;;;;;;;;;;5027863;28;20337;-61
2022/04/30 16:24:33;;;;;;;0.40;0.40;;;;;;;;;;5029764;28;20203;-61
2022/04/30 16:27:20;;;;;;;0.30;0.30;;;;;;;;;;5033433;28;20293;-61
2022/04/30 16:30:10;;;;;;;0.30;0.30;;;;;;;;;;5027571;28;20253;-61
2022/04/30 16:32:59;;;;;;;0.20;0.20;;;;;;;;;;5032690;28;20223;-62
2022/04/30 16:35:47;;;;;;;0.30;0.30;;;;;;;;;;5030100;28;20206;-61
2022/04/30 16:38:34;;;;;;;0.50;0.47;;;;;;;;;;5028744;28;20209;-62
2022/04/30 16:41:21;;;;;;;0.40;0.40;;;;;;;;;;5029536;28;20207;-60
2022/04/30 16:44:08;;;;;;;0.30;0.30;;;;;;;;;;5029807;28;20219;-61
2022/04/30 16:46:55;;;;;;;0.30;0.30;;;;;;;;;;5028936;28;20254;-61
2022/04/30 16:49:42;;;;;;;0.47;0.47;;;;;;;;;;5008554;28;20242;-61
2022/04/30 16:52:30;;;;;;;0.30;0.30;;;;;;;;;;5017787;28;20273;-62
2022/04/30 16:58:22;;;;;;;0.47;0.47;;;;;;;;;;5010384;28;20211;-62
2022/04/30 17:01:09;;;;;;;0.40;0.40;;;;;;;;;;5010575;28;20219;-62
2022/04/30 17:03:56;;;;;;;0.30;0.30;;;;;;;;;;5008484;28;20203;-61
2022/04/30 17:06:44;;;;;;;0.37;0.37;;;;;;;;;;5008462;28;20717;-61
2022/04/30 17:09:32;;;;;;;0.30;0.30;;;;;;;;;;5010952;28;20264;-61
2022/04/30 17:12:19;;;;;;;0.43;0.43;;;;;;;;;;5007286;28;20195;-63
2022/04/30 17:15:07;;;;;;;0.30;0.30;;;;;;;;;;5007028;28;20254;-61
2022/04/30 17:17:54;;;;;;;0.40;0.40;;;;;;;;;;5008198;28;20218;-68
2022/04/30 17:20:42;;;;;;;1.23;0.40;;;;;;;;;;5010314;28;20696;-62
2022/04/30 17:23:29;;;;;;;0.60;0.30;;;;;;;;;;5010129;28;20222;-61
2022/04/30 17:26:18;;;;;;;0.40;0.40;;;;;;;;;;5015672;28;20257;-61
2022/04/30 17:29:05;;;;;;;0.30;0.30;;;;;;;;;;5011011;28;20695;-61
2022/04/30 17:38:01;;;;;;;0.40;0.40;;;;;;;;;;5012581;28;20295;-62
2022/04/30 17:40:48;;;;;;;0.50;0.40;;;;;;;;;;5014047;28;20623;-61
2022/04/30 17:43:37;;;;;;;0.30;0.30;;;;;;;;;;5011719;28;20840;-61
2022/04/30 17:46:25;;;;;;;0.50;0.50;;;;;;;;;;5013339;28;20231;-62
2022/04/30 17:49:12;;;;;;;0.30;0.30;;;;;;;;;;5028304;28;20290;-61
2022/04/30 17:51:59;;;;;;;0.40;0.40;;;;;;;;;;5035814;28;20323;-65